createdAt,value
2022-12-11T00:00:26.465Z,-0.34
2022-12-11T00:04:27.904Z,-0.40
2022-12-11T00:08:30.654Z,-0.32
2022-12-11T00:12:32.055Z,-0.29
2022-12-11T00:16:33.514Z,-0.41
2022-12-11T00:20:34.896Z,-0.35
2022-12-11T00:24:37.628Z,-0.38
2022-12-11T00:28:39.072Z,-0.41
2022-12-11T00:32:40.567Z,-0.44
2022-12-11T00:36:41.968Z,-0.52
2022-12-11T00:40:45.154Z,-0.56
2022-12-11T00:44:46.542Z,-0.63
2022-12-11T00:48:47.940Z,-0.53
2022-12-11T00:52:49.320Z,-0.62
2022-12-11T00:56:52.084Z,-0.78
2022-12-11T01:00:53.521Z,-0.76
2022-12-11T01:04:55.002Z,-0.62
2022-12-11T01:08:57.217Z,-0.55
2022-12-11T01:13:01.247Z,-0.54
2022-12-11T01:17:02.759Z,-0.88
2022-12-11T01:21:07.650Z,-0.80
2022-12-11T01:25:09.483Z,-0.79
2022-12-11T01:29:12.396Z,-0.80
2022-12-11T01:33:13.734Z,-0.81
2022-12-11T01:37:15.146Z,-0.67
2022-12-11T01:41:17.076Z,-0.78
2022-12-11T01:45:27.719Z,-0.63
2022-12-11T01:49:29.364Z,-0.61
2022-12-11T01:53:33.298Z,-0.73
2022-12-11T01:57:34.806Z,-0.55
2022-12-11T02:01:40.695Z,-0.67
2022-12-11T02:05:42.162Z,-0.72
2022-12-11T02:09:45.005Z,-0.64
2022-12-11T02:13:51.734Z,-0.75
2022-12-11T02:18:00.179Z,-0.96
2022-12-11T02:22:03.086Z,-0.82
2022-12-11T02:26:10.309Z,-0.77
2022-12-11T02:30:14.010Z,-0.85
2022-12-11T02:34:18.191Z,-0.97
2022-12-11T02:38:23.031Z,-1.11
2022-12-11T02:42:28.578Z,-1.05
2022-12-11T02:46:34.087Z,-1.03
2022-12-11T02:50:37.594Z,-0.85
2022-12-11T02:54:40.112Z,-1.22
2022-12-11T02:58:45.527Z,-1.25
2022-12-11T03:02:48.365Z,-1.29
2022-12-11T03:06:51.567Z,-1.31
2022-12-11T03:10:52.953Z,-1.34
2022-12-11T03:14:54.477Z,-1.41
2022-12-11T03:19:02.015Z,-1.52
2022-12-11T03:23:08.356Z,-1.65
2022-12-11T03:27:14.504Z,-1.86
2022-12-11T03:31:21.146Z,-1.90
2022-12-11T03:35:26.320Z,-1.89
2022-12-11T03:39:31.037Z,-2.07
2022-12-11T03:43:33.106Z,-2.14
2022-12-11T03:47:34.918Z,-2.14
2022-12-11T03:51:38.030Z,-2.11
2022-12-11T03:55:39.991Z,-2.20
2022-12-11T03:59:41.640Z,-2.18
2022-12-11T04:03:43.020Z,-2.33
2022-12-11T04:07:45.837Z,-2.12
2022-12-11T04:11:47.254Z,-2.33
2022-12-11T04:15:48.800Z,-2.45
2022-12-11T04:19:50.245Z,-2.55
2022-12-11T04:23:52.965Z,-2.63
2022-12-11T04:27:54.351Z,-2.60
2022-12-11T04:31:55.744Z,-2.63
2022-12-11T04:35:57.329Z,-2.72
2022-12-11T04:40:00.069Z,-2.74
2022-12-11T04:44:01.504Z,-2.56
2022-12-11T04:48:02.895Z,-2.78
2022-12-11T04:52:04.534Z,-2.90
2022-12-11T04:56:08.107Z,-3.00
2022-12-11T05:00:10.565Z,-3.02
2022-12-11T05:04:12.058Z,-2.97
2022-12-11T05:08:13.474Z,-2.99
2022-12-11T05:12:16.248Z,-3.16
2022-12-11T05:16:17.669Z,-3.14
2022-12-11T05:20:19.125Z,-3.21
2022-12-11T05:24:20.536Z,-3.19
2022-12-11T05:28:23.815Z,-3.27
2022-12-11T05:32:25.210Z,-3.45
2022-12-11T05:36:27.598Z,-3.41
2022-12-11T05:40:29.077Z,-3.47
2022-12-11T05:44:31.826Z,-3.38
2022-12-11T05:48:33.207Z,-3.18
2022-12-11T05:52:34.586Z,-3.23
2022-12-11T05:56:36.296Z,-3.40
2022-12-11T06:00:41.075Z,-3.53
2022-12-11T06:04:42.461Z,-3.50
2022-12-11T06:08:43.821Z,-3.55
2022-12-11T06:12:45.169Z,-3.59
2022-12-11T06:16:47.936Z,-3.74
2022-12-11T06:20:49.351Z,-3.80
2022-12-11T06:24:50.724Z,-3.78
2022-12-11T06:28:52.730Z,-3.94
2022-12-11T06:32:55.477Z,-3.91
2022-12-11T06:36:56.822Z,-3.94
2022-12-11T06:40:59.486Z,-3.94
2022-12-11T06:45:00.924Z,-4.00
2022-12-11T06:49:03.664Z,-4.05
2022-12-11T06:53:05.076Z,-3.93
2022-12-11T06:57:06.424Z,-3.78
2022-12-11T07:01:13.898Z,-3.71
2022-12-11T07:05:16.670Z,-3.69
2022-12-11T07:09:18.073Z,-3.52
2022-12-11T07:13:19.463Z,-3.42
2022-12-11T07:17:20.792Z,-3.53
2022-12-11T07:21:23.521Z,-3.51
2022-12-11T07:25:24.916Z,-3.35
2022-12-11T07:29:26.321Z,-3.22
2022-12-11T07:33:27.649Z,-2.91
2022-12-11T07:37:30.425Z,-2.98
2022-12-11T07:41:31.808Z,-3.09
2022-12-11T07:45:33.229Z,-2.99
2022-12-11T07:49:34.629Z,-3.00
2022-12-11T07:53:37.439Z,-2.84
2022-12-11T07:57:38.878Z,-2.75
2022-12-11T08:01:40.755Z,-2.66
2022-12-11T08:05:46.553Z,-2.49
2022-12-11T08:09:49.284Z,-2.41
2022-12-11T08:13:50.650Z,-2.40
2022-12-11T08:17:52.023Z,-2.27
2022-12-11T08:21:53.420Z,-2.33
2022-12-11T08:25:56.131Z,-2.46
2022-12-11T08:29:57.533Z,-2.38
2022-12-11T08:33:58.958Z,-2.28
2022-12-11T08:38:00.301Z,-2.05
2022-12-11T08:42:03.019Z,-1.93
2022-12-11T08:46:04.652Z,-1.78
2022-12-11T08:50:06.432Z,-1.85
2022-12-11T08:54:09.361Z,-2.07
2022-12-11T08:58:12.199Z,-1.71
2022-12-11T09:02:13.633Z,-1.59
2022-12-11T09:06:16.176Z,-1.43
2022-12-11T09:10:17.619Z,-1.18
2022-12-11T09:14:20.342Z,-1.11
2022-12-11T09:18:21.711Z,-1.40
2022-12-11T09:22:23.106Z,-1.22
2022-12-11T09:26:25.017Z,-1.49
2022-12-11T09:30:27.738Z,-1.50
2022-12-11T09:34:29.730Z,-1.54
2022-12-11T09:38:31.584Z,-1.30
2022-12-11T09:42:42.216Z,-1.04
2022-12-11T09:46:45.516Z,-0.87
2022-12-11T09:50:47.913Z,-0.70
2022-12-11T09:54:50.511Z,-0.64
2022-12-11T09:58:58.062Z,-0.64
2022-12-11T10:03:09.640Z,-0.77
2022-12-11T10:07:12.292Z,-0.54
2022-12-11T10:11:22.769Z,-0.58
2022-12-11T10:15:30.793Z,-0.55
2022-12-11T10:19:34.329Z,-0.38
2022-12-11T10:23:38.370Z,-0.31
2022-12-11T10:27:40.384Z,-0.27
2022-12-11T10:31:46.598Z,-0.19
2022-12-11T10:35:50.503Z,-0.18
2022-12-11T10:39:54.037Z,-0.28
2022-12-11T10:43:55.455Z,-0.38
2022-12-11T10:48:04.178Z,-0.63
2022-12-11T10:52:11.585Z,-0.76
2022-12-11T10:56:13.400Z,-0.79
2022-12-11T11:00:28.679Z,-0.72
2022-12-11T11:04:31.406Z,-0.82
2022-12-11T11:08:41.350Z,-0.78
2022-12-11T11:12:43.930Z,-0.68
2022-12-11T11:16:46.609Z,-0.44
2022-12-11T11:20:48.409Z,-0.43
2022-12-11T11:24:55.579Z,-0.44
2022-12-11T11:28:57.140Z,-0.36
2022-12-11T11:32:59.720Z,-0.22
2022-12-11T11:37:01.120Z,-0.11
2022-12-11T11:41:15.049Z,-0.12
2022-12-11T11:45:20.487Z,-0.23
2022-12-11T11:49:25.643Z,-0.19
2022-12-11T11:53:30.325Z,-0.17
2022-12-11T11:57:35.488Z,-0.31
2022-12-11T12:01:37.122Z,-0.19
2022-12-11T12:05:43.253Z,-0.12
2022-12-11T12:09:49.327Z,-0.40
2022-12-11T12:13:57.307Z,-0.41
2022-12-11T12:18:03.895Z,-0.56
2022-12-11T12:22:11.954Z,-0.61
2022-12-11T12:26:17.048Z,-0.63
2022-12-11T12:30:22.871Z,-0.63
2022-12-11T12:34:33.948Z,-0.80
2022-12-11T12:38:38.408Z,-0.74
2022-12-11T12:42:45.699Z,-0.72
2022-12-11T12:46:54.772Z,-0.67
2022-12-11T12:50:56.759Z,-0.49
2022-12-11T12:54:59.976Z,-0.55
2022-12-11T12:59:01.392Z,-0.60
2022-12-11T13:03:12.979Z,-0.55
2022-12-11T13:07:17.851Z,-0.33
2022-12-11T13:11:20.601Z,-0.49
2022-12-11T13:15:36.839Z,-0.51
2022-12-11T13:19:42.801Z,-0.22
2022-12-11T13:23:44.393Z,-0.28
2022-12-11T13:27:45.808Z,-0.17
2022-12-11T13:31:56.302Z,-0.36
2022-12-11T13:36:24.745Z,-0.32
2022-12-11T13:40:28.608Z,-0.35
2022-12-11T13:44:32.197Z,-0.66
2022-12-11T13:48:34.960Z,-0.75
2022-12-11T13:52:37.723Z,-0.84
2022-12-11T13:56:39.110Z,-0.92
2022-12-11T14:00:40.576Z,-0.97
2022-12-11T14:04:42.154Z,-0.95
2022-12-11T14:08:45.085Z,-0.66
2022-12-11T14:12:51.474Z,-0.84
2022-12-11T14:16:53.067Z,-0.62
2022-12-11T14:20:55.153Z,-0.60
2022-12-11T14:24:58.775Z,-0.64
2022-12-11T14:29:00.578Z,-0.73
2022-12-11T14:33:04.498Z,-0.81
2022-12-11T14:37:06.978Z,-0.89
2022-12-11T14:41:12.735Z,-1.20
2022-12-11T14:45:19.083Z,-0.98
2022-12-11T14:49:22.658Z,-1.07
2022-12-11T14:53:26.322Z,-1.33
2022-12-11T14:57:30.796Z,-1.40
2022-12-11T15:01:32.971Z,-1.57
2022-12-11T15:05:40.509Z,-1.58
2022-12-11T15:09:46.532Z,-1.61
2022-12-11T15:13:51.941Z,-1.58
2022-12-11T15:17:53.399Z,-1.47
2022-12-11T15:21:55.291Z,-1.44
2022-12-11T15:25:57.693Z,-1.49
2022-12-11T15:30:00.415Z,-1.26
2022-12-11T15:34:02.123Z,-1.42
2022-12-11T15:38:03.889Z,-1.24
2022-12-11T15:42:05.637Z,-1.42
2022-12-11T15:46:08.456Z,-1.22
2022-12-11T15:50:15.037Z,-1.18
2022-12-11T15:54:16.422Z,-1.14
2022-12-11T15:58:19.082Z,-1.28
2022-12-11T16:02:22.175Z,-1.29
2022-12-11T16:06:23.621Z,-1.22
2022-12-11T16:10:25.250Z,-1.15
2022-12-11T16:14:26.614Z,-1.11
2022-12-11T16:18:29.405Z,-1.18
2022-12-11T16:22:30.780Z,-1.16
2022-12-11T16:26:32.205Z,-1.26
2022-12-11T16:30:34.655Z,-1.13
2022-12-11T16:34:37.435Z,-1.10
2022-12-11T16:38:38.819Z,-1.11
2022-12-11T16:42:40.218Z,-0.94
2022-12-11T16:46:41.608Z,-1.14
2022-12-11T16:50:44.359Z,-1.18
2022-12-11T16:54:45.751Z,-1.08
2022-12-11T16:58:47.591Z,-1.13
2022-12-11T17:02:49.059Z,-1.07
2022-12-11T17:06:51.854Z,-1.21
2022-12-11T17:10:53.201Z,-0.98
2022-12-11T17:14:54.691Z,-1.29
2022-12-11T17:18:56.534Z,-1.32
2022-12-11T17:22:59.277Z,-1.23
2022-12-11T17:27:00.954Z,-1.44
2022-12-11T17:31:03.615Z,-1.38
2022-12-11T17:35:05.523Z,-1.39
2022-12-11T17:39:08.276Z,-1.36
2022-12-11T17:43:10.391Z,-1.47
2022-12-11T17:47:11.729Z,-1.44
2022-12-11T17:51:13.737Z,-1.56
2022-12-11T17:55:16.911Z,-1.66
2022-12-11T17:59:18.435Z,-1.48
2022-12-11T18:03:19.990Z,-1.54
2022-12-11T18:07:21.395Z,-1.48
2022-12-11T18:11:24.270Z,-1.54
2022-12-11T18:15:25.659Z,-1.51
2022-12-11T18:19:27.106Z,-1.48
2022-12-11T18:23:28.521Z,-1.52
2022-12-11T18:27:31.254Z,-1.48
2022-12-11T18:31:34.483Z,-1.66
2022-12-11T18:35:39.253Z,-1.51
2022-12-11T18:39:40.633Z,-1.51
2022-12-11T18:43:43.422Z,-1.60
2022-12-11T18:47:44.935Z,-1.58
2022-12-11T18:51:46.295Z,-1.63
2022-12-11T18:55:48.496Z,-1.76
2022-12-11T18:59:51.806Z,-1.93
2022-12-11T19:03:55.367Z,-1.79
2022-12-11T19:08:00.427Z,-1.73
2022-12-11T19:12:01.933Z,-1.76
2022-12-11T19:16:04.920Z,-1.58
2022-12-11T19:20:39.849Z,-1.65
2022-12-11T19:24:28.337Z,-1.62
2022-12-11T19:28:29.699Z,-1.60
2022-12-11T19:32:36.275Z,-1.67
2022-12-11T19:36:37.933Z,-1.63
2022-12-11T19:40:40.436Z,-1.61
2022-12-11T19:44:41.831Z,-1.70
2022-12-11T19:48:44.907Z,-1.77
2022-12-11T19:52:46.717Z,-1.77
2022-12-11T19:56:48.146Z,-1.91
2022-12-11T20:00:49.595Z,-2.03
2022-12-11T20:04:52.413Z,-2.09
2022-12-11T20:08:53.854Z,-2.05
2022-12-11T20:12:55.252Z,-1.99
2022-12-11T20:17:13.819Z,-2.01
2022-12-11T20:21:18.031Z,-2.15
2022-12-11T20:25:19.515Z,-2.16
2022-12-11T20:29:21.054Z,-2.13
2022-12-11T20:33:22.528Z,-2.09
2022-12-11T20:37:25.337Z,-2.09
2022-12-11T20:41:27.282Z,-2.37
2022-12-11T20:45:28.752Z,-2.41
2022-12-11T20:49:30.141Z,-2.55
2022-12-11T20:53:33.697Z,-2.63
2022-12-11T20:57:35.116Z,-2.63
2022-12-11T21:01:36.499Z,-2.51
2022-12-11T21:05:39.978Z,-2.66
2022-12-11T21:09:42.706Z,-2.66
2022-12-11T21:13:44.141Z,-2.79
2022-12-11T21:17:45.494Z,-2.79
2022-12-11T21:21:46.989Z,-2.67
2022-12-11T21:25:50.553Z,-2.72
2022-12-11T21:29:51.915Z,-2.69
2022-12-11T21:33:53.353Z,-2.69
2022-12-11T21:37:54.746Z,-2.74
2022-12-11T21:41:57.493Z,-2.74
2022-12-11T21:46:01.752Z,-2.80
2022-12-11T21:50:04.476Z,-2.74
2022-12-11T21:54:06.686Z,-2.60
2022-12-11T21:58:09.481Z,-2.67
2022-12-11T22:02:10.971Z,-2.69
2022-12-11T22:06:12.400Z,-2.76
2022-12-11T22:10:13.788Z,-2.69
2022-12-11T22:14:17.538Z,-2.73
2022-12-11T22:18:18.912Z,-2.68
2022-12-11T22:22:20.364Z,-2.71
2022-12-11T22:26:22.594Z,-2.60
2022-12-11T22:30:25.339Z,-2.43
2022-12-11T22:34:26.725Z,-2.56
2022-12-11T22:38:28.091Z,-2.53
2022-12-11T22:42:29.450Z,-2.58
2022-12-11T22:46:32.199Z,-2.54
2022-12-11T22:50:33.802Z,-2.58
2022-12-11T22:54:37.511Z,-2.57
2022-12-11T22:58:39.277Z,-2.50
2022-12-11T23:02:42.068Z,-2.31
2022-12-11T23:06:43.516Z,-2.24
2022-12-11T23:10:45.266Z,-2.35
2022-12-11T23:14:46.653Z,-2.46
2022-12-11T23:18:49.424Z,-2.29
2022-12-11T23:22:50.809Z,-2.26
2022-12-11T23:26:52.206Z,-2.31
2022-12-11T23:30:53.651Z,-2.40
2022-12-11T23:34:56.436Z,-2.17
2022-12-11T23:38:57.918Z,-2.37
2022-12-11T23:42:59.266Z,-2.10
2022-12-11T23:47:00.650Z,-1.98
2022-12-11T23:51:04.254Z,-2.11
2022-12-11T23:55:06.249Z,-1.95
2022-12-11T23:59:07.609Z,-1.86
